createdAt,value
2019-05-22T00:02:28.179Z,18.33
2019-05-22T00:05:11.806Z,16.03
2019-05-22T00:07:39.182Z,16.30
2019-05-22T00:10:08.559Z,19.27
2019-05-22T00:12:46.261Z,15.60
2019-05-22T00:15:07.348Z,13.97
2019-05-22T00:17:34.223Z,14.47
2019-05-22T00:20:02.969Z,13.40
2019-05-22T00:22:32.828Z,14.37
2019-05-22T00:25:01.322Z,14.67
2019-05-22T00:27:31.713Z,14.63
2019-05-22T00:29:59.893Z,15.00
2019-05-22T00:32:28.384Z,13.80
2019-05-22T00:34:55.668Z,15.13
2019-05-22T00:37:22.745Z,15.70
2019-05-22T00:39:50.756Z,16.80
2019-05-22T00:42:20.139Z,17.20
2019-05-22T00:44:47.858Z,17.90
2019-05-22T00:47:16.661Z,16.33
2019-05-22T00:49:45.792Z,19.60
2019-05-22T00:52:41.573Z,19.10
2019-05-22T00:55:26.848Z,17.87
2019-05-22T00:58:03.302Z,15.13
2019-05-22T01:00:36.818Z,18.43
2019-05-22T01:03:06.506Z,14.97
2019-05-22T01:05:36.380Z,17.73
2019-05-22T01:08:05.944Z,19.10
2019-05-22T01:10:33.034Z,18.00
2019-05-22T01:13:00.115Z,17.27
2019-05-22T01:15:28.312Z,19.13
2019-05-22T01:17:55.609Z,17.23
2019-05-22T01:20:25.620Z,19.97
2019-05-22T01:22:56.783Z,17.40
2019-05-22T01:25:23.853Z,14.90
2019-05-22T01:27:51.851Z,18.27
2019-05-22T01:30:28.384Z,18.93
2019-05-22T01:32:58.094Z,14.93
2019-05-22T01:35:30.479Z,14.33
2019-05-22T01:37:59.132Z,20.00
2019-05-22T01:40:41.184Z,20.53
2019-05-22T01:43:09.241Z,13.07
2019-05-22T01:45:52.265Z,21.60
2019-05-22T01:48:23.239Z,21.13
2019-05-22T01:50:54.724Z,22.50
2019-05-22T01:53:26.324Z,19.73
2019-05-22T01:56:05.736Z,21.17
2019-05-22T01:58:33.708Z,19.03
2019-05-22T02:01:02.561Z,19.20
2019-05-22T02:03:30.591Z,12.83
2019-05-22T02:05:57.555Z,20.80
2019-05-22T02:08:26.413Z,20.00
2019-05-22T02:10:57.061Z,16.30
2019-05-22T02:13:32.608Z,20.20
2019-05-22T02:15:59.887Z,18.50
2019-05-22T02:18:27.165Z,19.43
2019-05-22T02:20:54.369Z,20.23
2019-05-22T02:23:21.259Z,20.50
2019-05-22T02:25:49.642Z,20.27
2019-05-22T02:28:16.830Z,17.07
2019-05-22T02:30:45.729Z,18.37
2019-05-22T02:33:13.563Z,19.53
2019-05-22T02:35:42.169Z,19.07
2019-05-22T02:38:11.570Z,18.33
2019-05-22T02:40:41.129Z,20.30
2019-05-22T02:43:08.518Z,20.20
2019-05-22T02:45:35.392Z,20.40
2019-05-22T02:48:02.978Z,14.63
2019-05-22T02:50:32.092Z,19.07
2019-05-22T02:52:59.169Z,21.20
2019-05-22T02:55:26.433Z,18.33
2019-05-22T02:57:53.511Z,11.17
2019-05-22T03:00:21.751Z,21.37
2019-05-22T03:02:52.428Z,17.20
2019-05-22T03:05:20.131Z,17.50
2019-05-22T03:07:47.677Z,17.57
2019-05-22T03:10:17.463Z,18.33
2019-05-22T03:12:45.154Z,17.20
2019-05-22T03:15:15.499Z,17.90
2019-05-22T03:17:44.353Z,17.83
2019-05-22T03:20:12.993Z,13.47
2019-05-22T03:22:51.095Z,19.83
2019-05-22T03:25:19.273Z,16.80
2019-05-22T03:27:49.541Z,16.27
2019-05-22T03:30:23.707Z,16.37
2019-05-22T03:32:51.396Z,16.40
2019-05-22T03:35:19.688Z,12.93
2019-05-22T03:37:46.806Z,17.23
2019-05-22T03:40:15.009Z,17.97
2019-05-22T03:42:41.967Z,16.97
2019-05-22T03:45:10.297Z,14.50
2019-05-22T03:47:37.645Z,17.40
2019-05-22T03:50:06.472Z,17.97
2019-05-22T03:52:33.870Z,18.07
2019-05-22T03:55:00.740Z,17.97
2019-05-22T03:57:27.525Z,16.57
2019-05-22T03:59:54.303Z,16.80
2019-05-22T04:02:21.390Z,20.83
2019-05-22T04:04:48.453Z,18.93
2019-05-22T04:07:20.847Z,20.70
2019-05-22T04:09:50.928Z,18.27
2019-05-22T04:12:17.722Z,18.37
2019-05-22T04:14:45.183Z,16.57
2019-05-22T04:17:14.348Z,19.90
2019-05-22T04:19:49.172Z,17.80
2019-05-22T04:22:12.399Z,17.47
2019-05-22T04:24:40.197Z,12.10
2019-05-22T04:27:08.285Z,18.90
2019-05-22T04:29:35.584Z,14.20
2019-05-22T04:32:19.824Z,19.80
2019-05-22T04:34:47.852Z,21.30
2019-05-22T04:37:15.505Z,19.40
2019-05-22T04:39:44.613Z,20.00
2019-05-22T04:42:11.823Z,19.07
2019-05-22T04:44:57.778Z,20.23
2019-05-22T04:47:25.063Z,15.03
2019-05-22T04:50:06.831Z,17.53
2019-05-22T04:52:20.811Z,16.70
2019-05-22T04:54:47.713Z,13.23
2019-05-22T04:57:15.010Z,16.70
2019-05-22T04:59:41.750Z,16.13
2019-05-22T05:02:09.339Z,15.97
2019-05-22T05:04:36.736Z,20.17
2019-05-22T05:07:06.244Z,17.63
2019-05-22T05:09:32.932Z,17.53
2019-05-22T05:11:59.818Z,17.30
2019-05-22T05:14:26.513Z,17.10
2019-05-22T05:16:53.594Z,18.43
2019-05-22T05:19:20.392Z,14.77
2019-05-22T05:21:47.479Z,14.20
2019-05-22T05:24:14.241Z,23.07
2019-05-22T05:26:41.398Z,17.33
2019-05-22T05:29:29.822Z,17.50
2019-05-22T05:31:58.252Z,17.83
2019-05-22T05:34:49.488Z,17.13
2019-05-22T05:37:18.662Z,15.00
2019-05-22T05:40:25.236Z,15.33
2019-05-22T05:42:52.570Z,15.30
2019-05-22T05:45:19.465Z,15.97
2019-05-22T05:47:55.422Z,13.33
2019-05-22T05:50:37.878Z,17.50
2019-05-22T05:52:53.830Z,15.17
2019-05-22T05:55:23.102Z,14.70
2019-05-22T05:58:22.179Z,12.90
2019-05-22T06:00:54.059Z,19.30
2019-05-22T06:03:31.760Z,18.67
2019-05-22T06:06:01.665Z,17.73
2019-05-22T06:08:28.551Z,20.43
2019-05-22T06:11:32.839Z,18.00
2019-05-22T06:13:59.695Z,18.20
2019-05-22T06:17:11.560Z,17.33
2019-05-22T06:19:42.994Z,18.00
2019-05-22T06:22:11.058Z,17.53
2019-05-22T06:25:07.693Z,12.43
2019-05-22T06:27:51.744Z,17.27
2019-05-22T06:30:37.284Z,16.53
2019-05-22T06:33:42.124Z,14.87
2019-05-22T06:36:16.914Z,19.40
2019-05-22T06:39:16.054Z,16.60
2019-05-22T06:41:43.338Z,16.20
2019-05-22T06:44:40.172Z,17.67
2019-05-22T06:47:09.722Z,17.27
2019-05-22T06:49:48.406Z,16.73
2019-05-22T06:52:16.296Z,14.50
2019-05-22T06:54:43.754Z,9.23
2019-05-22T06:57:14.534Z,13.40
2019-05-22T06:59:44.212Z,17.90
2019-05-22T07:02:13.030Z,24.90
2019-05-22T07:04:40.122Z,18.73
2019-05-22T07:07:11.534Z,28.03
2019-05-22T07:09:36.793Z,19.00
2019-05-22T07:12:05.472Z,19.43
2019-05-22T07:14:32.513Z,20.10
2019-05-22T07:17:00.906Z,18.00
2019-05-22T07:19:28.371Z,12.67
2019-05-22T07:21:55.968Z,21.93
2019-05-22T07:24:23.265Z,19.37
2019-05-22T07:26:51.747Z,16.80
2019-05-22T07:29:19.025Z,19.73
2019-05-22T07:31:45.803Z,18.73
2019-05-22T07:34:12.625Z,16.77
2019-05-22T07:36:39.834Z,14.93
2019-05-22T07:39:07.829Z,18.63
2019-05-22T07:41:34.833Z,18.13
2019-05-22T07:44:01.733Z,17.40
2019-05-22T07:46:30.990Z,13.47
2019-05-22T07:48:57.616Z,18.53
2019-05-22T07:51:25.329Z,14.53
2019-05-22T07:53:52.324Z,18.97
2019-05-22T07:56:20.495Z,19.27
2019-05-22T07:58:47.600Z,18.93
2019-05-22T08:01:14.503Z,19.83
2019-05-22T08:03:43.846Z,14.97
2019-05-22T08:06:10.855Z,15.20
2019-05-22T08:08:39.127Z,15.23
2019-05-22T08:11:06.923Z,16.13
2019-05-22T08:13:34.806Z,12.17
2019-05-22T08:16:02.161Z,17.23
2019-05-22T08:18:35.856Z,14.13
2019-05-22T08:21:02.943Z,12.17
2019-05-22T08:23:30.034Z,15.67
2019-05-22T08:25:58.375Z,17.40
2019-05-22T08:28:26.052Z,15.30
2019-05-22T08:30:53.059Z,13.70
2019-05-22T08:33:21.644Z,10.77
2019-05-22T08:35:48.666Z,13.73
2019-05-22T08:38:17.965Z,14.47
2019-05-22T08:40:45.776Z,15.13
2019-05-22T08:43:12.717Z,13.73
2019-05-22T08:45:39.462Z,12.87
2019-05-22T08:48:06.528Z,15.50
2019-05-22T08:50:34.066Z,15.40
2019-05-22T08:53:01.236Z,14.03
2019-05-22T08:55:28.739Z,14.00
2019-05-22T08:57:55.823Z,13.60
2019-05-22T09:00:24.476Z,14.57
2019-05-22T09:02:51.699Z,14.43
2019-05-22T09:05:21.681Z,12.93
2019-05-22T09:07:47.617Z,13.63
2019-05-22T09:10:15.623Z,13.20
2019-05-22T09:12:42.386Z,12.57
2019-05-22T09:15:10.376Z,13.13
2019-05-22T09:17:37.841Z,12.93
2019-05-22T09:20:05.526Z,11.80
2019-05-22T09:22:40.847Z,13.80
2019-05-22T09:25:06.271Z,13.00
2019-05-22T09:27:33.919Z,11.60
2019-05-22T09:30:00.643Z,14.63
2019-05-22T09:32:27.394Z,14.50
2019-05-22T09:34:54.896Z,9.00
2019-05-22T09:37:21.942Z,11.10
2019-05-22T09:39:48.816Z,12.50
2019-05-22T09:42:15.869Z,10.63
2019-05-22T09:44:42.863Z,10.30
2019-05-22T09:47:10.442Z,12.10
2019-05-22T09:49:37.958Z,12.30
2019-05-22T09:52:06.996Z,10.77
2019-05-22T09:54:34.270Z,9.40
2019-05-22T09:57:01.402Z,11.37
2019-05-22T09:59:28.410Z,9.40
2019-05-22T10:01:55.428Z,12.77
2019-05-22T10:04:22.322Z,11.13
2019-05-22T10:06:49.101Z,8.83
2019-05-22T10:09:16.315Z,7.97
2019-05-22T10:11:43.106Z,9.13
2019-05-22T10:14:10.141Z,8.37
2019-05-22T10:16:37.258Z,8.10
2019-05-22T10:19:04.581Z,7.07
2019-05-22T10:21:31.542Z,7.83
2019-05-22T10:23:58.626Z,8.70
2019-05-22T10:26:25.954Z,5.53
2019-05-22T10:28:54.538Z,6.60
2019-05-22T10:31:21.918Z,6.53
2019-05-22T10:33:51.933Z,6.83
2019-05-22T10:36:17.414Z,7.30
2019-05-22T10:38:44.363Z,8.50
2019-05-22T10:41:12.037Z,9.50
2019-05-22T10:43:39.582Z,6.10
2019-05-22T10:46:07.840Z,7.27
2019-05-22T10:48:34.945Z,6.50
2019-05-22T10:51:01.879Z,8.80
2019-05-22T10:53:33.569Z,7.27
2019-05-22T10:55:57.833Z,8.83
2019-05-22T10:58:24.874Z,8.50
2019-05-22T11:00:51.760Z,6.00
2019-05-22T11:03:18.639Z,6.90
2019-05-22T11:05:46.170Z,6.03
2019-05-22T11:08:12.943Z,6.30
2019-05-22T11:10:39.753Z,9.10
2019-05-22T11:13:06.938Z,6.70
2019-05-22T11:15:33.819Z,8.63
2019-05-22T11:18:01.655Z,6.57
2019-05-22T11:20:29.528Z,7.43
2019-05-22T11:22:56.830Z,6.97
2019-05-22T11:25:24.430Z,5.53
2019-05-22T11:27:52.382Z,5.80
2019-05-22T11:30:19.606Z,3.37
2019-05-22T11:32:46.517Z,5.60
2019-05-22T11:35:13.927Z,4.00
2019-05-22T11:37:41.109Z,5.90
2019-05-22T11:40:09.074Z,5.23
2019-05-22T11:42:36.754Z,4.90
2019-05-22T11:45:04.171Z,6.37
2019-05-22T11:47:31.136Z,5.47
2019-05-22T11:49:58.014Z,6.80
2019-05-22T11:52:26.803Z,4.10
2019-05-22T11:54:53.595Z,7.70
2019-05-22T11:57:21.885Z,4.40
2019-05-22T11:59:48.926Z,6.13
2019-05-22T12:02:16.202Z,4.97
2019-05-22T12:04:47.904Z,6.17
2019-05-22T12:07:11.880Z,5.67
2019-05-22T12:09:39.420Z,5.53
2019-05-22T12:12:07.363Z,6.07
2019-05-22T12:14:34.662Z,6.47
2019-05-22T12:17:02.356Z,6.80
2019-05-22T12:19:29.293Z,5.47
2019-05-22T12:21:56.087Z,7.17
2019-05-22T12:24:27.906Z,6.70
2019-05-22T12:26:52.195Z,6.57
2019-05-22T12:29:19.388Z,6.30
2019-05-22T12:31:49.336Z,8.20
2019-05-22T12:34:16.135Z,7.20
2019-05-22T12:36:42.854Z,5.23
2019-05-22T12:39:09.958Z,11.20
2019-05-22T12:41:37.079Z,7.50
2019-05-22T12:44:03.892Z,5.03
2019-05-22T12:46:31.787Z,8.17
2019-05-22T12:48:58.621Z,6.43
2019-05-22T12:51:25.463Z,7.50
2019-05-22T12:53:52.229Z,5.60
2019-05-22T12:56:18.916Z,4.60
2019-05-22T12:58:46.337Z,4.33
2019-05-22T13:01:14.026Z,6.00
2019-05-22T13:03:41.387Z,4.80
2019-05-22T13:06:08.473Z,3.50
2019-05-22T13:08:36.541Z,4.07
2019-05-22T13:11:05.435Z,5.17
2019-05-22T13:13:32.267Z,3.40
2019-05-22T13:15:59.665Z,4.00
2019-05-22T13:18:26.506Z,3.77
2019-05-22T13:20:53.374Z,4.80
2019-05-22T13:23:22.503Z,36.73
2019-05-22T13:25:49.910Z,10.60
2019-05-22T13:28:17.514Z,20.23
2019-05-22T13:30:49.097Z,3.00
2019-05-22T13:33:18.573Z,11.37
2019-05-22T13:35:45.373Z,5.73
2019-05-22T13:38:13.515Z,3.80
2019-05-22T13:40:41.266Z,4.00
2019-05-22T13:43:08.075Z,3.70
2019-05-22T13:45:34.956Z,3.47
2019-05-22T13:48:01.828Z,17.30
2019-05-22T13:50:29.526Z,5.20
2019-05-22T13:52:57.687Z,3.73
2019-05-22T13:55:24.481Z,6.33
2019-05-22T13:57:51.633Z,4.13
2019-05-22T14:00:21.210Z,3.10
2019-05-22T14:02:48.117Z,3.17
2019-05-22T14:05:16.251Z,3.77
2019-05-22T14:07:44.162Z,3.10
2019-05-22T14:10:13.128Z,3.90
2019-05-22T14:12:40.428Z,2.90
2019-05-22T14:15:07.303Z,2.67
2019-05-22T14:17:34.275Z,3.33
2019-05-22T14:20:00.950Z,3.10
2019-05-22T14:22:27.722Z,3.80
2019-05-22T14:24:55.838Z,3.10
2019-05-22T14:27:22.776Z,3.23
2019-05-22T14:29:49.530Z,3.70
2019-05-22T14:32:16.307Z,3.77
2019-05-22T14:34:43.743Z,3.43
2019-05-22T14:37:11.632Z,3.80
2019-05-22T14:39:39.115Z,4.50
2019-05-22T14:42:06.418Z,3.20
2019-05-22T14:44:34.161Z,3.80
2019-05-22T14:47:13.042Z,3.17
2019-05-22T14:49:31.554Z,3.97
2019-05-22T14:51:58.242Z,3.20
2019-05-22T14:54:27.821Z,6.90
2019-05-22T14:56:56.769Z,4.83
2019-05-22T14:59:26.312Z,6.37
2019-05-22T15:01:56.494Z,4.37
2019-05-22T15:04:24.510Z,4.30
2019-05-22T15:06:51.710Z,4.13
2019-05-22T15:09:18.547Z,3.43
2019-05-22T15:11:46.178Z,3.60
2019-05-22T15:14:13.031Z,4.80
2019-05-22T15:16:39.935Z,4.83
2019-05-22T15:19:09.006Z,4.00
2019-05-22T15:21:36.228Z,3.30
2019-05-22T15:24:05.785Z,5.30
2019-05-22T15:26:32.852Z,5.73
2019-05-22T15:29:00.254Z,3.67
2019-05-22T15:31:27.072Z,4.20
2019-05-22T15:33:55.415Z,4.37
2019-05-22T15:36:24.183Z,3.60
2019-05-22T15:38:52.289Z,2.87
2019-05-22T15:41:19.778Z,5.80
2019-05-22T15:43:52.128Z,4.40
2019-05-22T15:46:16.755Z,2.80
2019-05-22T15:48:46.722Z,5.03
2019-05-22T15:51:13.943Z,4.43
2019-05-22T15:53:41.838Z,4.40
2019-05-22T15:56:09.930Z,4.40
2019-05-22T15:58:39.416Z,7.57
2019-05-22T16:01:07.521Z,7.63
2019-05-22T16:03:36.722Z,7.77
2019-05-22T16:06:04.668Z,6.10
2019-05-22T16:08:32.556Z,5.20
2019-05-22T16:11:00.668Z,5.83
2019-05-22T16:13:31.593Z,3.70
2019-05-22T16:15:59.101Z,7.53
2019-05-22T16:18:26.815Z,3.63
2019-05-22T16:20:54.151Z,3.00
2019-05-22T16:23:22.143Z,3.40
2019-05-22T16:25:49.144Z,4.00
2019-05-22T16:28:17.154Z,4.13
2019-05-22T16:30:44.450Z,4.07
2019-05-22T16:33:12.332Z,5.17
2019-05-22T16:35:39.904Z,3.40
2019-05-22T16:38:07.195Z,4.93
2019-05-22T16:40:34.512Z,5.30
2019-05-22T16:43:01.291Z,3.13
2019-05-22T16:45:31.599Z,3.40
2019-05-22T16:48:00.782Z,7.73
2019-05-22T16:50:28.569Z,5.07
2019-05-22T16:52:55.853Z,3.80
2019-05-22T16:55:23.375Z,5.03
2019-05-22T16:57:50.146Z,2.03
2019-05-22T17:00:18.120Z,4.40
2019-05-22T17:02:45.035Z,4.00
2019-05-22T17:05:12.497Z,13.90
2019-05-22T17:07:40.533Z,4.30
2019-05-22T17:10:08.127Z,2.93
2019-05-22T17:12:36.274Z,6.10
2019-05-22T17:15:03.607Z,3.17
2019-05-22T17:17:30.621Z,11.77
2019-05-22T17:19:57.689Z,14.90
2019-05-22T17:22:25.126Z,34.47
2019-05-22T17:24:51.918Z,4.07
2019-05-22T17:27:20.611Z,4.23
2019-05-22T17:29:50.262Z,3.40
2019-05-22T17:32:17.642Z,4.27
2019-05-22T17:34:44.632Z,3.67
2019-05-22T17:37:13.509Z,4.43
2019-05-22T17:39:43.809Z,4.57
2019-05-22T17:42:13.644Z,3.23
2019-05-22T17:44:41.511Z,2.90
2019-05-22T17:47:09.809Z,4.00
2019-05-22T17:49:40.684Z,3.57
2019-05-22T17:52:07.717Z,3.47
2019-05-22T17:54:34.900Z,3.90
2019-05-22T17:57:03.094Z,3.40
2019-05-22T17:59:29.990Z,3.47
2019-05-22T18:01:57.204Z,3.10
2019-05-22T18:04:23.994Z,3.30
2019-05-22T18:06:51.979Z,4.53
2019-05-22T18:09:20.150Z,4.70
2019-05-22T18:11:47.340Z,5.07
2019-05-22T18:14:15.094Z,11.67
2019-05-22T18:16:42.399Z,3.53
2019-05-22T18:19:10.792Z,4.50
2019-05-22T18:21:39.348Z,3.80
2019-05-22T18:24:08.269Z,3.40
2019-05-22T18:26:35.246Z,11.23
2019-05-22T18:29:01.927Z,4.70
2019-05-22T18:31:29.841Z,3.33
2019-05-22T18:33:57.709Z,14.03
2019-05-22T18:36:24.413Z,7.23
2019-05-22T18:38:51.285Z,3.90
2019-05-22T18:41:17.962Z,3.00
2019-05-22T18:43:44.658Z,4.00
2019-05-22T18:46:11.354Z,3.20
2019-05-22T18:48:38.351Z,3.40
2019-05-22T18:51:06.780Z,4.10
2019-05-22T18:53:33.898Z,5.60
2019-05-22T18:56:01.086Z,3.70
2019-05-22T18:58:28.569Z,3.30
2019-05-22T19:00:55.450Z,3.93
2019-05-22T19:03:22.560Z,3.80
2019-05-22T19:05:49.624Z,4.10
2019-05-22T19:08:16.421Z,3.37
2019-05-22T19:10:43.443Z,10.97
2019-05-22T19:13:10.467Z,4.10
2019-05-22T19:15:38.190Z,3.63
2019-05-22T19:18:05.262Z,3.73
2019-05-22T19:20:33.142Z,3.77
2019-05-22T19:23:01.756Z,3.10
2019-05-22T19:25:29.057Z,7.50
2019-05-22T19:27:55.851Z,3.50
2019-05-22T19:30:26.498Z,3.80
2019-05-22T19:32:53.187Z,3.00
2019-05-22T19:35:20.004Z,3.33
2019-05-22T19:37:46.981Z,3.30
2019-05-22T19:40:15.080Z,3.70
2019-05-22T19:42:42.166Z,4.37
2019-05-22T19:45:10.299Z,3.20
2019-05-22T19:47:40.902Z,3.97
2019-05-22T19:50:22.237Z,3.80
2019-05-22T19:52:41.754Z,3.67
2019-05-22T19:55:09.469Z,3.53
2019-05-22T19:57:37.364Z,3.27
2019-05-22T20:00:04.461Z,4.30
2019-05-22T20:02:33.280Z,4.70
2019-05-22T20:05:00.182Z,4.20
2019-05-22T20:07:27.470Z,7.03
2019-05-22T20:09:54.614Z,4.47
2019-05-22T20:12:24.861Z,3.90
2019-05-22T20:14:50.939Z,4.50
2019-05-22T20:17:17.848Z,4.97
2019-05-22T20:19:45.022Z,4.30
2019-05-22T20:22:14.110Z,5.50
2019-05-22T20:24:40.827Z,4.50
2019-05-22T20:27:09.699Z,8.27
2019-05-22T20:29:36.699Z,4.77
2019-05-22T20:32:04.911Z,4.60
2019-05-22T20:34:33.075Z,4.83
2019-05-22T20:36:59.867Z,6.90
2019-05-22T20:39:29.703Z,5.00
2019-05-22T20:41:56.681Z,6.30
2019-05-22T20:44:24.344Z,5.77
2019-05-22T20:46:52.020Z,5.23
2019-05-22T20:49:18.806Z,6.40
2019-05-22T20:51:46.433Z,5.47
2019-05-22T20:54:14.413Z,5.90
2019-05-22T20:56:43.119Z,6.47
2019-05-22T20:59:09.991Z,6.07
2019-05-22T21:01:36.797Z,5.37
2019-05-22T21:04:05.757Z,5.73
2019-05-22T21:06:39.391Z,5.80
2019-05-22T21:09:06.537Z,10.50
2019-05-22T21:11:33.890Z,21.50
2019-05-22T21:14:00.795Z,5.67
2019-05-22T21:16:27.855Z,5.63
2019-05-22T21:18:56.746Z,6.20
2019-05-22T21:21:24.335Z,6.83
2019-05-22T21:23:51.246Z,6.20
2019-05-22T21:26:20.251Z,6.33
2019-05-22T21:28:47.872Z,6.07
2019-05-22T21:31:15.777Z,9.37
2019-05-22T21:33:47.435Z,7.17
2019-05-22T21:36:15.691Z,14.40
2019-05-22T21:38:45.886Z,7.30
2019-05-22T21:41:13.191Z,7.30
2019-05-22T21:43:40.427Z,24.93
2019-05-22T21:46:08.172Z,7.57
2019-05-22T21:48:35.954Z,7.07
2019-05-22T21:51:02.867Z,9.20
2019-05-22T21:53:30.544Z,22.57
2019-05-22T21:56:04.583Z,46.33
2019-05-22T21:58:27.335Z,35.07
2019-05-22T22:01:26.537Z,51.53
2019-05-22T22:04:00.632Z,11.57
2019-05-22T22:06:27.979Z,33.30
2019-05-22T22:08:54.839Z,31.17
2019-05-22T22:11:23.754Z,31.00
2019-05-22T22:13:50.628Z,22.50
2019-05-22T22:16:18.163Z,12.57
2019-05-22T22:18:45.493Z,9.60
2019-05-22T22:21:12.877Z,8.23
2019-05-22T22:23:40.303Z,8.17
2019-05-22T22:26:24.749Z,8.60
2019-05-22T22:28:39.511Z,9.83
2019-05-22T22:31:08.333Z,7.47
2019-05-22T22:33:36.205Z,8.10
2019-05-22T22:36:03.593Z,8.97
2019-05-22T22:38:32.306Z,8.93
2019-05-22T22:40:59.086Z,8.73
2019-05-22T22:43:29.865Z,9.60
2019-05-22T22:46:05.689Z,8.60
2019-05-22T22:48:34.933Z,10.97
2019-05-22T22:51:05.545Z,9.90
2019-05-22T22:53:32.263Z,10.53
2019-05-22T22:55:59.130Z,9.83
2019-05-22T22:58:27.224Z,10.27
2019-05-22T23:00:54.514Z,10.00
2019-05-22T23:03:23.643Z,10.40
2019-05-22T23:05:51.966Z,11.30
2019-05-22T23:08:24.021Z,9.90
2019-05-22T23:10:52.325Z,11.37
2019-05-22T23:13:20.616Z,10.40
2019-05-22T23:15:50.105Z,11.23
2019-05-22T23:19:07.658Z,13.20
2019-05-22T23:21:35.432Z,11.17
2019-05-22T23:24:01.403Z,11.20
2019-05-22T23:26:29.854Z,13.30
2019-05-22T23:28:57.679Z,11.43
2019-05-22T23:31:24.367Z,9.93
2019-05-22T23:33:51.607Z,12.30
2019-05-22T23:36:19.915Z,12.10
2019-05-22T23:38:47.690Z,11.43
2019-05-22T23:41:14.781Z,11.73
2019-05-22T23:43:41.869Z,11.10
2019-05-22T23:46:10.786Z,9.93
2019-05-22T23:48:38.378Z,13.27
2019-05-22T23:51:05.270Z,11.97
2019-05-22T23:53:32.252Z,12.27
2019-05-22T23:55:59.539Z,11.40
2019-05-22T23:58:27.007Z,11.53
